sensor_id;sensor_type;location;lat;lon;timestamp;P1;durP1;ratioP1;P2;durP2;ratioP2
43363;SDS011;40636;52.424;-1.948;2022-07-06T00:00:01;2.35;;;0.95;;
43363;SDS011;40636;52.424;-1.948;2022-07-06T00:02:28;2.45;;;1.25;;
43363;SDS011;40636;52.424;-1.948;2022-07-06T00:04:55;1.42;;;1.00;;
43363;SDS011;40636;52.424;-1.948;2022-07-06T00:07:24;2.80;;;1.35;;
43363;SDS011;40636;52.424;-1.948;2022-07-06T00:09:51;4.50;;;2.70;;
43363;SDS011;40636;52.424;-1.948;2022-07-06T00:12:18;2.65;;;1.10;;
43363;SDS011;40636;52.424;-1.948;2022-07-06T00:14:45;4.45;;;1.83;;
43363;SDS011;40636;52.424;-1.948;2022-07-06T00:17:11;4.38;;;1.23;;
43363;SDS011;40636;52.424;-1.948;2022-07-06T00:19:38;2.03;;;1.08;;
43363;SDS011;40636;52.424;-1.948;2022-07-06T00:22:05;1.13;;;1.02;;
43363;SDS011;40636;52.424;-1.948;2022-07-06T00:24:32;3.15;;;1.20;;
43363;SDS011;40636;52.424;-1.948;2022-07-06T00:26:59;2.78;;;1.35;;
43363;SDS011;40636;52.424;-1.948;2022-07-06T00:29:26;4.25;;;1.40;;
43363;SDS011;40636;52.424;-1.948;2022-07-06T00:31:52;1.58;;;1.38;;
43363;SDS011;40636;52.424;-1.948;2022-07-06T00:34:19;5.22;;;1.10;;
43363;SDS011;40636;52.424;-1.948;2022-07-06T00:36:46;2.42;;;1.10;;
43363;SDS011;40636;52.424;-1.948;2022-07-06T00:39:13;4.07;;;1.30;;
43363;SDS011;40636;52.424;-1.948;2022-07-06T00:41:40;5.90;;;1.00;;
43363;SDS011;40636;52.424;-1.948;2022-07-06T00:44:08;2.08;;;0.93;;
43363;SDS011;40636;52.424;-1.948;2022-07-06T00:46:36;3.05;;;1.73;;
43363;SDS011;40636;52.424;-1.948;2022-07-06T00:49:03;3.45;;;1.10;;
43363;SDS011;40636;52.424;-1.948;2022-07-06T00:51:30;0.77;;;0.77;;
43363;SDS011;40636;52.424;-1.948;2022-07-06T00:54:03;2.28;;;0.73;;
43363;SDS011;40636;52.424;-1.948;2022-07-06T00:56:31;1.35;;;0.70;;
43363;SDS011;40636;52.424;-1.948;2022-07-06T00:59:02;2.50;;;1.00;;
43363;SDS011;40636;52.424;-1.948;2022-07-06T01:01:29;1.45;;;1.30;;
43363;SDS011;40636;52.424;-1.948;2022-07-06T01:03:56;1.20;;;0.82;;
43363;SDS011;40636;52.424;-1.948;2022-07-06T01:06:23;1.10;;;0.80;;
43363;SDS011;40636;52.424;-1.948;2022-07-06T01:08:50;2.50;;;1.13;;
43363;SDS011;40636;52.424;-1.948;2022-07-06T01:11:18;1.05;;;0.73;;
43363;SDS011;40636;52.424;-1.948;2022-07-06T01:13:46;1.20;;;0.90;;
43363;SDS011;40636;52.424;-1.948;2022-07-06T01:16:13;2.85;;;1.20;;
43363;SDS011;40636;52.424;-1.948;2022-07-06T01:18:41;1.33;;;1.00;;
43363;SDS011;40636;52.424;-1.948;2022-07-06T01:21:10;1.10;;;0.77;;
43363;SDS011;40636;52.424;-1.948;2022-07-06T01:23:41;1.23;;;0.75;;
43363;SDS011;40636;52.424;-1.948;2022-07-06T01:26:09;2.25;;;0.90;;
43363;SDS011;40636;52.424;-1.948;2022-07-06T01:28:38;1.13;;;1.02;;
43363;SDS011;40636;52.424;-1.948;2022-07-06T01:31:05;1.33;;;0.70;;
43363;SDS011;40636;52.424;-1.948;2022-07-06T01:33:39;1.63;;;0.85;;
43363;SDS011;40636;52.424;-1.948;2022-07-06T01:36:06;5.30;;;1.00;;
43363;SDS011;40636;52.424;-1.948;2022-07-06T01:38:42;2.45;;;0.98;;
43363;SDS011;40636;52.424;-1.948;2022-07-06T01:41:13;2.13;;;0.90;;
43363;SDS011;40636;52.424;-1.948;2022-07-06T01:43:40;0.65;;;0.65;;
43363;SDS011;40636;52.424;-1.948;2022-07-06T01:46:07;0.60;;;0.60;;
43363;SDS011;40636;52.424;-1.948;2022-07-06T01:48:34;0.98;;;0.88;;
43363;SDS011;40636;52.424;-1.948;2022-07-06T01:51:01;0.95;;;0.90;;
43363;SDS011;40636;52.424;-1.948;2022-07-06T01:53:28;1.25;;;0.63;;
43363;SDS011;40636;52.424;-1.948;2022-07-06T01:55:55;2.22;;;0.88;;
43363;SDS011;40636;52.424;-1.948;2022-07-06T01:58:22;2.55;;;1.30;;
43363;SDS011;40636;52.424;-1.948;2022-07-06T02:00:50;1.02;;;0.80;;
43363;SDS011;40636;52.424;-1.948;2022-07-06T02:03:17;1.35;;;1.25;;
43363;SDS011;40636;52.424;-1.948;2022-07-06T02:05:44;2.90;;;1.17;;
43363;SDS011;40636;52.424;-1.948;2022-07-06T02:08:11;0.70;;;0.70;;
43363;SDS011;40636;52.424;-1.948;2022-07-06T02:10:37;1.85;;;1.25;;
43363;SDS011;40636;52.424;-1.948;2022-07-06T02:13:04;1.10;;;1.02;;
43363;SDS011;40636;52.424;-1.948;2022-07-06T02:15:31;1.40;;;1.10;;
43363;SDS011;40636;52.424;-1.948;2022-07-06T02:17:58;1.65;;;1.38;;
43363;SDS011;40636;52.424;-1.948;2022-07-06T02:20:25;1.73;;;1.00;;
43363;SDS011;40636;52.424;-1.948;2022-07-06T02:22:52;2.08;;;1.00;;
43363;SDS011;40636;52.424;-1.948;2022-07-06T02:25:19;1.30;;;1.00;;
43363;SDS011;40636;52.424;-1.948;2022-07-06T02:27:46;1.35;;;1.10;;
43363;SDS011;40636;52.424;-1.948;2022-07-06T02:30:12;1.83;;;1.10;;
43363;SDS011;40636;52.424;-1.948;2022-07-06T02:32:39;2.17;;;1.08;;
43363;SDS011;40636;52.424;-1.948;2022-07-06T02:35:06;1.90;;;1.27;;
43363;SDS011;40636;52.424;-1.948;2022-07-06T02:37:33;4.20;;;1.60;;
43363;SDS011;40636;52.424;-1.948;2022-07-06T02:40:00;2.92;;;1.27;;
43363;SDS011;40636;52.424;-1.948;2022-07-06T02:42:27;2.47;;;1.73;;
43363;SDS011;40636;52.424;-1.948;2022-07-06T02:44:54;1.85;;;1.40;;
43363;SDS011;40636;52.424;-1.948;2022-07-06T02:47:22;2.67;;;1.00;;
43363;SDS011;40636;52.424;-1.948;2022-07-06T02:49:49;1.98;;;1.40;;
43363;SDS011;40636;52.424;-1.948;2022-07-06T02:52:16;2.78;;;1.50;;
43363;SDS011;40636;52.424;-1.948;2022-07-06T02:54:42;2.83;;;1.85;;
43363;SDS011;40636;52.424;-1.948;2022-07-06T02:57:09;3.60;;;1.58;;
43363;SDS011;40636;52.424;-1.948;2022-07-06T02:59:37;4.28;;;1.67;;
43363;SDS011;40636;52.424;-1.948;2022-07-06T03:02:04;3.30;;;1.75;;
43363;SDS011;40636;52.424;-1.948;2022-07-06T03:04:31;4.80;;;1.70;;
43363;SDS011;40636;52.424;-1.948;2022-07-06T03:06:59;5.05;;;1.48;;
43363;SDS011;40636;52.424;-1.948;2022-07-06T03:09:26;4.15;;;1.80;;
43363;SDS011;40636;52.424;-1.948;2022-07-06T03:11:53;2.25;;;1.85;;
43363;SDS011;40636;52.424;-1.948;2022-07-06T03:14:20;3.33;;;1.52;;
43363;SDS011;40636;52.424;-1.948;2022-07-06T03:16:47;1.75;;;1.65;;
43363;SDS011;40636;52.424;-1.948;2022-07-06T03:19:17;2.35;;;1.42;;
43363;SDS011;40636;52.424;-1.948;2022-07-06T03:21:44;3.03;;;1.85;;
43363;SDS011;40636;52.424;-1.948;2022-07-06T03:24:10;4.05;;;1.50;;
43363;SDS011;40636;52.424;-1.948;2022-07-06T03:26:37;1.67;;;1.42;;
43363;SDS011;40636;52.424;-1.948;2022-07-06T03:29:04;2.28;;;1.70;;
43363;SDS011;40636;52.424;-1.948;2022-07-06T03:31:31;3.13;;;1.40;;
43363;SDS011;40636;52.424;-1.948;2022-07-06T03:33:58;2.25;;;1.65;;
43363;SDS011;40636;52.424;-1.948;2022-07-06T03:36:25;2.72;;;2.00;;
43363;SDS011;40636;52.424;-1.948;2022-07-06T03:38:52;2.75;;;1.75;;
43363;SDS011;40636;52.424;-1.948;2022-07-06T03:41:19;2.30;;;1.50;;
43363;SDS011;40636;52.424;-1.948;2022-07-06T03:43:46;1.90;;;1.38;;
43363;SDS011;40636;52.424;-1.948;2022-07-06T03:46:12;2.33;;;1.80;;
43363;SDS011;40636;52.424;-1.948;2022-07-06T03:48:39;1.70;;;1.60;;
43363;SDS011;40636;52.424;-1.948;2022-07-06T03:51:06;2.42;;;1.58;;
43363;SDS011;40636;52.424;-1.948;2022-07-06T03:53:33;2.97;;;1.60;;
43363;SDS011;40636;52.424;-1.948;2022-07-06T03:56:00;3.28;;;1.38;;
43363;SDS011;40636;52.424;-1.948;2022-07-06T03:58:46;2.05;;;1.30;;
43363;SDS011;40636;52.424;-1.948;2022-07-06T04:01:12;6.90;;;2.90;;
43363;SDS011;40636;52.424;-1.948;2022-07-06T04:03:39;1.98;;;1.45;;
43363;SDS011;40636;52.424;-1.948;2022-07-06T04:06:06;1.60;;;1.35;;
43363;SDS011;40636;52.424;-1.948;2022-07-06T04:08:33;1.95;;;1.15;;
43363;SDS011;40636;52.424;-1.948;2022-07-06T04:11:00;1.48;;;1.23;;
43363;SDS011;40636;52.424;-1.948;2022-07-06T04:13:27;3.90;;;1.30;;
43363;SDS011;40636;52.424;-1.948;2022-07-06T04:15:54;1.40;;;1.25;;
43363;SDS011;40636;52.424;-1.948;2022-07-06T04:18:21;3.42;;;1.30;;
43363;SDS011;40636;52.424;-1.948;2022-07-06T04:20:49;1.40;;;1.20;;
43363;SDS011;40636;52.424;-1.948;2022-07-06T04:23:16;1.52;;;1.38;;
43363;SDS011;40636;52.424;-1.948;2022-07-06T04:25:43;1.52;;;1.27;;
43363;SDS011;40636;52.424;-1.948;2022-07-06T04:28:10;1.20;;;1.10;;
43363;SDS011;40636;52.424;-1.948;2022-07-06T04:30:37;1.25;;;1.10;;
43363;SDS011;40636;52.424;-1.948;2022-07-06T04:33:04;1.02;;;0.93;;
43363;SDS011;40636;52.424;-1.948;2022-07-06T04:35:31;3.40;;;1.25;;
43363;SDS011;40636;52.424;-1.948;2022-07-06T04:37:58;1.42;;;1.30;;
43363;SDS011;40636;52.424;-1.948;2022-07-06T04:40:25;1.35;;;1.25;;
43363;SDS011;40636;52.424;-1.948;2022-07-06T04:42:52;1.25;;;1.15;;
43363;SDS011;40636;52.424;-1.948;2022-07-06T04:45:19;1.42;;;1.27;;
43363;SDS011;40636;52.424;-1.948;2022-07-06T04:47:45;1.20;;;1.00;;
43363;SDS011;40636;52.424;-1.948;2022-07-06T04:50:12;3.05;;;1.30;;
43363;SDS011;40636;52.424;-1.948;2022-07-06T04:52:39;1.15;;;1.05;;
43363;SDS011;40636;52.424;-1.948;2022-07-06T04:55:06;1.30;;;1.20;;
43363;SDS011;40636;52.424;-1.948;2022-07-06T04:57:35;1.15;;;1.02;;
43363;SDS011;40636;52.424;-1.948;2022-07-06T05:00:03;1.35;;;1.10;;
43363;SDS011;40636;52.424;-1.948;2022-07-06T05:02:31;1.77;;;1.20;;
43363;SDS011;40636;52.424;-1.948;2022-07-06T05:04:58;2.15;;;0.80;;
43363;SDS011;40636;52.424;-1.948;2022-07-06T05:07:25;1.20;;;1.00;;
43363;SDS011;40636;52.424;-1.948;2022-07-06T05:09:55;1.20;;;1.08;;
43363;SDS011;40636;52.424;-1.948;2022-07-06T05:12:22;1.65;;;1.20;;
43363;SDS011;40636;52.424;-1.948;2022-07-06T05:14:49;1.13;;;0.95;;
43363;SDS011;40636;52.424;-1.948;2022-07-06T05:17:16;1.35;;;1.25;;
43363;SDS011;40636;52.424;-1.948;2022-07-06T05:19:43;1.15;;;0.90;;
43363;SDS011;40636;52.424;-1.948;2022-07-06T05:22:10;1.73;;;1.05;;
43363;SDS011;40636;52.424;-1.948;2022-07-06T05:24:37;1.25;;;1.08;;
43363;SDS011;40636;52.424;-1.948;2022-07-06T05:27:04;1.45;;;1.23;;
43363;SDS011;40636;52.424;-1.948;2022-07-06T05:29:30;1.25;;;1.05;;
43363;SDS011;40636;52.424;-1.948;2022-07-06T05:31:57;1.20;;;1.10;;
43363;SDS011;40636;52.424;-1.948;2022-07-06T05:34:24;1.60;;;1.20;;
43363;SDS011;40636;52.424;-1.948;2022-07-06T05:36:51;1.65;;;1.10;;
43363;SDS011;40636;52.424;-1.948;2022-07-06T05:39:18;2.13;;;1.98;;
43363;SDS011;40636;52.424;-1.948;2022-07-06T05:41:47;1.20;;;1.10;;
43363;SDS011;40636;52.424;-1.948;2022-07-06T05:44:15;1.67;;;1.05;;
43363;SDS011;40636;52.424;-1.948;2022-07-06T05:46:41;1.65;;;1.23;;
43363;SDS011;40636;52.424;-1.948;2022-07-06T05:49:08;0.95;;;0.90;;
43363;SDS011;40636;52.424;-1.948;2022-07-06T05:51:54;1.70;;;1.15;;
43363;SDS011;40636;52.424;-1.948;2022-07-06T05:54:21;1.38;;;0.98;;
43363;SDS011;40636;52.424;-1.948;2022-07-06T05:56:47;2.90;;;1.20;;
43363;SDS011;40636;52.424;-1.948;2022-07-06T05:59:14;1.02;;;0.88;;
43363;SDS011;40636;52.424;-1.948;2022-07-06T06:01:41;1.98;;;1.15;;
43363;SDS011;40636;52.424;-1.948;2022-07-06T06:04:08;4.07;;;1.30;;
43363;SDS011;40636;52.424;-1.948;2022-07-06T06:06:35;2.20;;;0.93;;
43363;SDS011;40636;52.424;-1.948;2022-07-06T06:09:02;1.50;;;1.05;;
43363;SDS011;40636;52.424;-1.948;2022-07-06T06:11:29;2.05;;;1.38;;
43363;SDS011;40636;52.424;-1.948;2022-07-06T06:13:56;1.65;;;1.00;;
43363;SDS011;40636;52.424;-1.948;2022-07-06T06:16:22;1.77;;;1.05;;
43363;SDS011;40636;52.424;-1.948;2022-07-06T06:18:49;2.92;;;0.98;;
43363;SDS011;40636;52.424;-1.948;2022-07-06T06:21:16;2.70;;;1.25;;
43363;SDS011;40636;52.424;-1.948;2022-07-06T06:23:43;2.25;;;0.90;;
43363;SDS011;40636;52.424;-1.948;2022-07-06T06:26:10;1.02;;;0.85;;
43363;SDS011;40636;52.424;-1.948;2022-07-06T06:28:37;1.80;;;1.10;;
43363;SDS011;40636;52.424;-1.948;2022-07-06T06:31:04;1.25;;;1.15;;
43363;SDS011;40636;52.424;-1.948;2022-07-06T06:33:32;2.05;;;0.82;;
43363;SDS011;40636;52.424;-1.948;2022-07-06T06:35:59;0.80;;;0.80;;
43363;SDS011;40636;52.424;-1.948;2022-07-06T06:38:26;0.70;;;0.70;;
43363;SDS011;40636;52.424;-1.948;2022-07-06T06:40:54;2.22;;;0.90;;
43363;SDS011;40636;52.424;-1.948;2022-07-06T06:43:22;1.42;;;0.93;;
43363;SDS011;40636;52.424;-1.948;2022-07-06T06:45:49;3.78;;;1.02;;
43363;SDS011;40636;52.424;-1.948;2022-07-06T06:48:15;1.15;;;0.90;;
43363;SDS011;40636;52.424;-1.948;2022-07-06T06:50:44;1.27;;;0.70;;
43363;SDS011;40636;52.424;-1.948;2022-07-06T06:53:11;3.80;;;0.90;;
43363;SDS011;40636;52.424;-1.948;2022-07-06T06:55:38;1.98;;;0.73;;
43363;SDS011;40636;52.424;-1.948;2022-07-06T06:58:05;0.65;;;0.65;;
43363;SDS011;40636;52.424;-1.948;2022-07-06T07:00:32;2.45;;;1.10;;
43363;SDS011;40636;52.424;-1.948;2022-07-06T07:02:59;1.27;;;0.70;;
43363;SDS011;40636;52.424;-1.948;2022-07-06T07:05:26;1.00;;;0.65;;
43363;SDS011;40636;52.424;-1.948;2022-07-06T07:07:53;1.15;;;0.88;;
43363;SDS011;40636;52.424;-1.948;2022-07-06T07:10:29;1.10;;;0.70;;
43363;SDS011;40636;52.424;-1.948;2022-07-06T07:12:56;1.73;;;0.80;;
43363;SDS011;40636;52.424;-1.948;2022-07-06T07:15:23;2.78;;;0.90;;
43363;SDS011;40636;52.424;-1.948;2022-07-06T07:17:50;0.85;;;0.80;;
43363;SDS011;40636;52.424;-1.948;2022-07-06T07:20:17;0.60;;;0.60;;
43363;SDS011;40636;52.424;-1.948;2022-07-06T07:22:44;1.10;;;0.90;;
43363;SDS011;40636;52.424;-1.948;2022-07-06T07:25:11;0.95;;;0.82;;
43363;SDS011;40636;52.424;-1.948;2022-07-06T07:27:38;1.05;;;0.82;;
43363;SDS011;40636;52.424;-1.948;2022-07-06T07:30:05;0.55;;;0.55;;
43363;SDS011;40636;52.424;-1.948;2022-07-06T07:32:32;3.05;;;0.98;;
43363;SDS011;40636;52.424;-1.948;2022-07-06T07:34:59;0.70;;;0.70;;
43363;SDS011;40636;52.424;-1.948;2022-07-06T07:37:27;0.93;;;0.57;;
43363;SDS011;40636;52.424;-1.948;2022-07-06T07:39:54;0.80;;;0.60;;
43363;SDS011;40636;52.424;-1.948;2022-07-06T07:42:21;1.45;;;0.70;;
43363;SDS011;40636;52.424;-1.948;2022-07-06T07:44:48;1.85;;;0.70;;
43363;SDS011;40636;52.424;-1.948;2022-07-06T07:47:16;1.27;;;0.80;;
43363;SDS011;40636;52.424;-1.948;2022-07-06T07:49:42;0.73;;;0.70;;
43363;SDS011;40636;52.424;-1.948;2022-07-06T07:52:09;0.50;;;0.50;;
43363;SDS011;40636;52.424;-1.948;2022-07-06T07:54:37;2.85;;;1.20;;
43363;SDS011;40636;52.424;-1.948;2022-07-06T07:57:12;1.27;;;0.70;;
43363;SDS011;40636;52.424;-1.948;2022-07-06T07:59:39;1.27;;;0.73;;
43363;SDS011;40636;52.424;-1.948;2022-07-06T08:02:08;0.95;;;0.95;;
43363;SDS011;40636;52.424;-1.948;2022-07-06T08:04:35;1.48;;;0.80;;
43363;SDS011;40636;52.424;-1.948;2022-07-06T08:07:03;0.63;;;0.63;;
43363;SDS011;40636;52.424;-1.948;2022-07-06T08:09:29;0.90;;;0.77;;
43363;SDS011;40636;52.424;-1.948;2022-07-06T08:11:56;0.88;;;0.60;;
43363;SDS011;40636;52.424;-1.948;2022-07-06T08:14:24;1.20;;;1.02;;
43363;SDS011;40636;52.424;-1.948;2022-07-06T08:16:52;0.47;;;0.47;;
43363;SDS011;40636;52.424;-1.948;2022-07-06T08:19:19;0.60;;;0.60;;
43363;SDS011;40636;52.424;-1.948;2022-07-06T08:21:46;4.47;;;2.25;;
43363;SDS011;40636;52.424;-1.948;2022-07-06T08:24:13;0.63;;;0.50;;
43363;SDS011;40636;52.424;-1.948;2022-07-06T08:26:40;1.88;;;0.57;;
43363;SDS011;40636;52.424;-1.948;2022-07-06T08:29:07;1.35;;;0.70;;
43363;SDS011;40636;52.424;-1.948;2022-07-06T08:31:33;1.08;;;0.50;;
43363;SDS011;40636;52.424;-1.948;2022-07-06T08:34:21;1.20;;;0.73;;
43363;SDS011;40636;52.424;-1.948;2022-07-06T08:36:48;2.33;;;0.52;;
43363;SDS011;40636;52.424;-1.948;2022-07-06T08:39:15;0.77;;;0.47;;
43363;SDS011;40636;52.424;-1.948;2022-07-06T08:41:43;1.25;;;0.50;;
43363;SDS011;40636;52.424;-1.948;2022-07-06T08:44:15;0.43;;;0.40;;
43363;SDS011;40636;52.424;-1.948;2022-07-06T08:46:44;2.13;;;0.63;;
43363;SDS011;40636;52.424;-1.948;2022-07-06T08:49:13;1.15;;;0.70;;
43363;SDS011;40636;52.424;-1.948;2022-07-06T08:51:41;1.20;;;0.80;;
43363;SDS011;40636;52.424;-1.948;2022-07-06T08:54:09;1.05;;;0.70;;
43363;SDS011;40636;52.424;-1.948;2022-07-06T08:56:38;2.08;;;0.68;;
43363;SDS011;40636;52.424;-1.948;2022-07-06T08:59:13;0.95;;;0.88;;
43363;SDS011;40636;52.424;-1.948;2022-07-06T09:01:41;2.15;;;0.60;;
43363;SDS011;40636;52.424;-1.948;2022-07-06T09:04:11;0.90;;;0.60;;
43363;SDS011;40636;52.424;-1.948;2022-07-06T09:06:39;0.50;;;0.50;;
43363;SDS011;40636;52.424;-1.948;2022-07-06T09:09:09;0.63;;;0.52;;
43363;SDS011;40636;52.424;-1.948;2022-07-06T09:11:36;1.00;;;0.40;;
43363;SDS011;40636;52.424;-1.948;2022-07-06T09:14:04;1.85;;;0.70;;
43363;SDS011;40636;52.424;-1.948;2022-07-06T09:16:31;1.63;;;0.70;;
43363;SDS011;40636;52.424;-1.948;2022-07-06T09:19:06;5.15;;;2.90;;
43363;SDS011;40636;52.424;-1.948;2022-07-06T09:21:34;0.77;;;0.57;;
43363;SDS011;40636;52.424;-1.948;2022-07-06T09:24:08;0.65;;;0.47;;
43363;SDS011;40636;52.424;-1.948;2022-07-06T09:26:37;0.40;;;0.40;;
43363;SDS011;40636;52.424;-1.948;2022-07-06T09:29:05;0.47;;;0.47;;
43363;SDS011;40636;52.424;-1.948;2022-07-06T09:31:32;0.50;;;0.50;;
43363;SDS011;40636;52.424;-1.948;2022-07-06T09:41:53;1.23;;;0.40;;
43363;SDS011;40636;52.424;-1.948;2022-07-06T09:44:23;0.50;;;0.40;;
43363;SDS011;40636;52.424;-1.948;2022-07-06T09:46:53;0.88;;;0.38;;
43363;SDS011;40636;52.424;-1.948;2022-07-06T09:49:23;1.17;;;0.70;;
43363;SDS011;40636;52.424;-1.948;2022-07-06T09:51:52;0.88;;;0.60;;
43363;SDS011;40636;52.424;-1.948;2022-07-06T09:54:20;0.43;;;0.30;;
43363;SDS011;40636;52.424;-1.948;2022-07-06T09:56:48;0.65;;;0.40;;
43363;SDS011;40636;52.424;-1.948;2022-07-06T09:59:20;0.70;;;0.30;;
43363;SDS011;40636;52.424;-1.948;2022-07-06T10:01:55;0.52;;;0.52;;
43363;SDS011;40636;52.424;-1.948;2022-07-06T10:04:26;1.33;;;0.60;;
43363;SDS011;40636;52.424;-1.948;2022-07-06T10:06:55;0.43;;;0.32;;
43363;SDS011;40636;52.424;-1.948;2022-07-06T10:09:23;1.45;;;0.65;;
43363;SDS011;40636;52.424;-1.948;2022-07-06T10:11:57;1.75;;;0.65;;
43363;SDS011;40636;52.424;-1.948;2022-07-06T10:14:26;0.93;;;0.30;;
43363;SDS011;40636;52.424;-1.948;2022-07-06T10:17:02;0.43;;;0.43;;
43363;SDS011;40636;52.424;-1.948;2022-07-06T10:19:33;0.60;;;0.47;;
43363;SDS011;40636;52.424;-1.948;2022-07-06T10:22:00;0.90;;;0.50;;
43363;SDS011;40636;52.424;-1.948;2022-07-06T10:24:29;0.82;;;0.40;;
43363;SDS011;40636;52.424;-1.948;2022-07-06T10:27:00;0.77;;;0.40;;
43363;SDS011;40636;52.424;-1.948;2022-07-06T10:29:28;0.30;;;0.30;;
43363;SDS011;40636;52.424;-1.948;2022-07-06T10:31:57;0.65;;;0.63;;
43363;SDS011;40636;52.424;-1.948;2022-07-06T10:34:24;0.40;;;0.40;;
43363;SDS011;40636;52.424;-1.948;2022-07-06T10:36:52;0.55;;;0.50;;
43363;SDS011;40636;52.424;-1.948;2022-07-06T10:39:31;0.60;;;0.50;;
43363;SDS011;40636;52.424;-1.948;2022-07-06T10:45:05;0.52;;;0.45;;
43363;SDS011;40636;52.424;-1.948;2022-07-06T10:47:32;0.40;;;0.40;;
43363;SDS011;40636;52.424;-1.948;2022-07-06T10:50:02;0.50;;;0.50;;
43363;SDS011;40636;52.424;-1.948;2022-07-06T10:52:50;0.30;;;0.30;;
43363;SDS011;40636;52.424;-1.948;2022-07-06T10:58:00;0.32;;;0.30;;
43363;SDS011;40636;52.424;-1.948;2022-07-06T11:00:42;0.75;;;0.38;;
43363;SDS011;40636;52.424;-1.948;2022-07-06T11:03:30;0.60;;;0.40;;
43363;SDS011;40636;52.424;-1.948;2022-07-06T11:05:59;0.30;;;0.30;;
43363;SDS011;40636;52.424;-1.948;2022-07-06T11:11:15;0.30;;;0.20;;
43363;SDS011;40636;52.424;-1.948;2022-07-06T11:13:48;0.30;;;0.30;;
43363;SDS011;40636;52.424;-1.948;2022-07-06T11:16:23;0.52;;;0.22;;
43363;SDS011;40636;52.424;-1.948;2022-07-06T11:19:00;0.63;;;0.32;;
43363;SDS011;40636;52.424;-1.948;2022-07-06T11:21:41;1.65;;;0.30;;
43363;SDS011;40636;52.424;-1.948;2022-07-06T11:24:14;0.30;;;0.30;;
43363;SDS011;40636;52.424;-1.948;2022-07-06T11:26:44;0.60;;;0.40;;
43363;SDS011;40636;52.424;-1.948;2022-07-06T11:29:13;0.28;;;0.20;;
43363;SDS011;40636;52.424;-1.948;2022-07-06T11:31:42;0.75;;;0.30;;
43363;SDS011;40636;52.424;-1.948;2022-07-06T11:34:11;0.38;;;0.30;;
43363;SDS011;40636;52.424;-1.948;2022-07-06T11:36:43;1.23;;;0.30;;
43363;SDS011;40636;52.424;-1.948;2022-07-06T11:39:12;2.45;;;0.50;;
43363;SDS011;40636;52.424;-1.948;2022-07-06T11:41:39;2.38;;;0.63;;
43363;SDS011;40636;52.424;-1.948;2022-07-06T11:44:13;0.30;;;0.30;;
43363;SDS011;40636;52.424;-1.948;2022-07-06T11:46:40;0.45;;;0.45;;
43363;SDS011;40636;52.424;-1.948;2022-07-06T11:49:08;0.47;;;0.35;;
43363;SDS011;40636;52.424;-1.948;2022-07-06T11:51:36;0.28;;;0.28;;
43363;SDS011;40636;52.424;-1.948;2022-07-06T11:56:37;0.30;;;0.30;;
43363;SDS011;40636;52.424;-1.948;2022-07-06T11:59:04;0.85;;;0.22;;
43363;SDS011;40636;52.424;-1.948;2022-07-06T12:01:32;1.83;;;0.40;;
43363;SDS011;40636;52.424;-1.948;2022-07-06T12:04:00;0.50;;;0.30;;
43363;SDS011;40636;52.424;-1.948;2022-07-06T12:06:30;1.10;;;0.40;;
43363;SDS011;40636;52.424;-1.948;2022-07-06T12:08:58;0.28;;;0.28;;
43363;SDS011;40636;52.424;-1.948;2022-07-06T12:11:31;0.40;;;0.35;;
43363;SDS011;40636;52.424;-1.948;2022-07-06T12:16:42;0.80;;;0.25;;
43363;SDS011;40636;52.424;-1.948;2022-07-06T12:19:09;0.40;;;0.22;;
43363;SDS011;40636;52.424;-1.948;2022-07-06T12:21:46;0.57;;;0.35;;
43363;SDS011;40636;52.424;-1.948;2022-07-06T12:24:23;2.92;;;0.43;;
43363;SDS011;40636;52.424;-1.948;2022-07-06T12:26:54;0.30;;;0.30;;
43363;SDS011;40636;52.424;-1.948;2022-07-06T12:29:21;0.57;;;0.20;;
43363;SDS011;40636;52.424;-1.948;2022-07-06T12:31:52;0.38;;;0.35;;
43363;SDS011;40636;52.424;-1.948;2022-07-06T12:34:22;0.30;;;0.30;;
43363;SDS011;40636;52.424;-1.948;2022-07-06T12:36:55;2.25;;;0.40;;
43363;SDS011;40636;52.424;-1.948;2022-07-06T12:39:30;0.30;;;0.30;;
43363;SDS011;40636;52.424;-1.948;2022-07-06T12:42:01;2.60;;;0.40;;
43363;SDS011;40636;52.424;-1.948;2022-07-06T12:44:29;0.50;;;0.50;;
43363;SDS011;40636;52.424;-1.948;2022-07-06T12:47:06;0.43;;;0.43;;
43363;SDS011;40636;52.424;-1.948;2022-07-06T12:49:35;0.32;;;0.32;;
43363;SDS011;40636;52.424;-1.948;2022-07-06T12:52:11;0.82;;;0.68;;
43363;SDS011;40636;52.424;-1.948;2022-07-06T12:54:43;0.60;;;0.40;;
43363;SDS011;40636;52.424;-1.948;2022-07-06T12:57:15;0.68;;;0.52;;
43363;SDS011;40636;52.424;-1.948;2022-07-06T13:02:21;2.60;;;0.90;;
43363;SDS011;40636;52.424;-1.948;2022-07-06T13:05:12;0.60;;;0.60;;
43363;SDS011;40636;52.424;-1.948;2022-07-06T13:07:47;3.72;;;0.68;;
43363;SDS011;40636;52.424;-1.948;2022-07-06T13:10:15;0.73;;;0.60;;
43363;SDS011;40636;52.424;-1.948;2022-07-06T13:12:43;0.80;;;0.57;;
43363;SDS011;40636;52.424;-1.948;2022-07-06T13:15:11;0.85;;;0.50;;
43363;SDS011;40636;52.424;-1.948;2022-07-06T13:17:38;0.95;;;0.85;;
43363;SDS011;40636;52.424;-1.948;2022-07-06T13:20:07;1.38;;;0.88;;
43363;SDS011;40636;52.424;-1.948;2022-07-06T13:22:35;1.45;;;0.85;;
43363;SDS011;40636;52.424;-1.948;2022-07-06T13:25:03;0.60;;;0.60;;
43363;SDS011;40636;52.424;-1.948;2022-07-06T13:27:30;1.00;;;0.70;;
43363;SDS011;40636;52.424;-1.948;2022-07-06T13:29:58;0.65;;;0.60;;
43363;SDS011;40636;52.424;-1.948;2022-07-06T13:32:26;2.30;;;0.70;;
43363;SDS011;40636;52.424;-1.948;2022-07-06T13:34:53;0.85;;;0.70;;
43363;SDS011;40636;52.424;-1.948;2022-07-06T13:37:20;1.80;;;0.70;;
43363;SDS011;40636;52.424;-1.948;2022-07-06T13:39:48;1.25;;;0.60;;
43363;SDS011;40636;52.424;-1.948;2022-07-06T13:42:15;1.00;;;0.70;;
43363;SDS011;40636;52.424;-1.948;2022-07-06T13:44:42;0.95;;;0.68;;
43363;SDS011;40636;52.424;-1.948;2022-07-06T13:47:09;1.65;;;0.98;;
43363;SDS011;40636;52.424;-1.948;2022-07-06T13:49:36;2.60;;;0.80;;
43363;SDS011;40636;52.424;-1.948;2022-07-06T13:52:04;0.55;;;0.55;;
43363;SDS011;40636;52.424;-1.948;2022-07-06T13:54:32;0.70;;;0.70;;
43363;SDS011;40636;52.424;-1.948;2022-07-06T13:57:02;0.68;;;0.50;;
43363;SDS011;40636;52.424;-1.948;2022-07-06T13:59:31;7.97;;;2.00;;
43363;SDS011;40636;52.424;-1.948;2022-07-06T14:01:58;0.93;;;0.38;;
43363;SDS011;40636;52.424;-1.948;2022-07-06T14:04:25;0.40;;;0.40;;
43363;SDS011;40636;52.424;-1.948;2022-07-06T14:06:52;0.82;;;0.50;;
43363;SDS011;40636;52.424;-1.948;2022-07-06T14:09:19;0.85;;;0.50;;
43363;SDS011;40636;52.424;-1.948;2022-07-06T14:11:46;1.65;;;0.55;;
43363;SDS011;40636;52.424;-1.948;2022-07-06T14:14:13;1.35;;;0.52;;
43363;SDS011;40636;52.424;-1.948;2022-07-06T14:16:40;1.17;;;0.75;;
43363;SDS011;40636;52.424;-1.948;2022-07-06T14:19:08;0.45;;;0.40;;
43363;SDS011;40636;52.424;-1.948;2022-07-06T14:21:35;0.55;;;0.55;;
43363;SDS011;40636;52.424;-1.948;2022-07-06T14:24:02;0.75;;;0.75;;
43363;SDS011;40636;52.424;-1.948;2022-07-06T14:26:30;0.60;;;0.50;;
43363;SDS011;40636;52.424;-1.948;2022-07-06T14:28:57;0.98;;;0.38;;
43363;SDS011;40636;52.424;-1.948;2022-07-06T14:31:24;1.30;;;0.50;;
43363;SDS011;40636;52.424;-1.948;2022-07-06T14:33:51;0.80;;;0.45;;
43363;SDS011;40636;52.424;-1.948;2022-07-06T14:36:18;0.57;;;0.57;;
43363;SDS011;40636;52.424;-1.948;2022-07-06T14:38:46;1.15;;;0.40;;
43363;SDS011;40636;52.424;-1.948;2022-07-06T14:41:14;1.60;;;0.60;;
43363;SDS011;40636;52.424;-1.948;2022-07-06T14:43:42;1.10;;;0.47;;
43363;SDS011;40636;52.424;-1.948;2022-07-06T14:46:09;0.60;;;0.60;;
43363;SDS011;40636;52.424;-1.948;2022-07-06T14:48:36;1.45;;;0.60;;
43363;SDS011;40636;52.424;-1.948;2022-07-06T14:51:04;0.47;;;0.40;;
43363;SDS011;40636;52.424;-1.948;2022-07-06T14:53:31;1.65;;;0.30;;
43363;SDS011;40636;52.424;-1.948;2022-07-06T14:55:58;0.47;;;0.47;;
43363;SDS011;40636;52.424;-1.948;2022-07-06T14:58:25;0.40;;;0.40;;
43363;SDS011;40636;52.424;-1.948;2022-07-06T15:00:52;0.77;;;0.68;;
43363;SDS011;40636;52.424;-1.948;2022-07-06T15:03:24;0.52;;;0.40;;